createdAt,value
2023-03-27T00:01:59.608Z,13.43
2023-03-27T00:07:03.994Z,13.41
2023-03-27T00:12:07.731Z,13.44
2023-03-27T00:17:11.409Z,13.43
2023-03-27T00:22:14.468Z,13.48
2023-03-27T00:27:17.971Z,13.57
2023-03-27T00:32:21.897Z,13.67
2023-03-27T00:37:25.475Z,13.91
2023-03-27T00:42:29.186Z,14.19
2023-03-27T00:47:36.078Z,14.47
2023-03-27T00:52:42.682Z,14.50
2023-03-27T00:57:50.669Z,14.46
2023-03-27T01:02:55.848Z,14.50
2023-03-27T01:08:05.390Z,14.34
2023-03-27T01:13:26.503Z,14.42
2023-03-27T01:18:50.377Z,14.21
2023-03-27T01:24:13.014Z,13.97
2023-03-27T01:29:30.793Z,13.79
2023-03-27T01:35:06.643Z,14.03
2023-03-27T01:40:20.793Z,13.91
2023-03-27T01:45:33.977Z,13.86
2023-03-27T01:50:55.041Z,13.81
2023-03-27T01:56:11.497Z,13.94
2023-03-27T02:01:21.280Z,13.91
2023-03-27T02:06:34.382Z,13.74
2023-03-27T02:11:47.644Z,14.01
2023-03-27T02:16:58.507Z,14.07
2023-03-27T02:22:02.382Z,14.20
2023-03-27T02:27:35.385Z,13.81
2023-03-27T02:32:59.289Z,13.42
2023-03-27T02:38:09.588Z,13.23
2023-03-27T02:43:46.712Z,12.87
2023-03-27T02:49:01.902Z,12.64
2023-03-27T02:54:06.865Z,13.13
2023-03-27T02:59:19.184Z,13.50
2023-03-27T03:04:25.334Z,13.59
2023-03-27T03:09:48.824Z,14.00
2023-03-27T03:14:52.689Z,14.25
2023-03-27T03:19:56.739Z,14.21
2023-03-27T03:25:01.850Z,14.08
2023-03-27T03:30:07.831Z,13.89
2023-03-27T03:35:17.253Z,13.62
2023-03-27T03:40:22.463Z,14.09
2023-03-27T03:45:31.157Z,14.09
2023-03-27T03:50:36.309Z,14.11
2023-03-27T03:55:40.578Z,14.66
2023-03-27T04:00:43.823Z,14.33
2023-03-27T04:06:01.966Z,14.37
2023-03-27T04:11:05.969Z,14.29
2023-03-27T04:16:29.527Z,13.24
2023-03-27T04:21:36.735Z,11.92
2023-03-27T04:26:41.587Z,11.10
2023-03-27T04:32:10.668Z,10.64
2023-03-27T04:37:16.685Z,10.57
2023-03-27T04:42:43.270Z,10.36
2023-03-27T04:47:49.283Z,10.15
2023-03-27T04:52:58.967Z,9.69
2023-03-27T04:58:05.957Z,9.32
2023-03-27T05:03:11.440Z,9.25
2023-03-27T05:08:31.610Z,9.22
2023-03-27T05:13:36.574Z,9.26
2023-03-27T05:18:42.340Z,9.13
2023-03-27T05:23:46.419Z,9.38
2023-03-27T05:28:51.591Z,9.35
2023-03-27T05:33:55.282Z,9.64
2023-03-27T05:38:59.867Z,9.84
2023-03-27T05:44:09.571Z,10.00
2023-03-27T05:49:18.439Z,10.06
2023-03-27T05:54:26.772Z,10.61
2023-03-27T05:59:36.078Z,10.52
2023-03-27T06:04:53.582Z,10.64
2023-03-27T06:10:04.520Z,10.76
2023-03-27T06:15:19.568Z,11.09
2023-03-27T06:20:43.672Z,14.66
2023-03-27T06:25:48.148Z,16.60
2023-03-27T06:30:51.777Z,17.28
2023-03-27T06:36:06.273Z,17.55
2023-03-27T06:41:12.221Z,19.10
2023-03-27T06:46:45.027Z,22.45
2023-03-27T06:51:59.636Z,21.21
2023-03-27T06:57:03.618Z,19.79
2023-03-27T07:02:25.915Z,19.75
2023-03-27T07:07:49.370Z,20.58
2023-03-27T07:12:57.131Z,22.75
2023-03-27T07:18:03.569Z,20.03
2023-03-27T07:23:07.684Z,20.79
2023-03-27T07:28:33.023Z,20.26
2023-03-27T07:33:44.950Z,21.31
2023-03-27T07:38:50.056Z,21.55
2023-03-27T07:44:04.332Z,20.54
2023-03-27T07:49:19.482Z,21.47
2023-03-27T07:54:44.608Z,21.54
2023-03-27T07:59:52.908Z,20.94
2023-03-27T08:05:20.187Z,21.20
2023-03-27T08:10:39.781Z,21.96
2023-03-27T08:15:45.185Z,21.78
2023-03-27T08:20:59.525Z,21.93
2023-03-27T08:26:04.327Z,21.92
2023-03-27T08:31:17.141Z,20.80
2023-03-27T08:36:23.309Z,21.64
2023-03-27T08:41:38.723Z,21.55
2023-03-27T08:47:10.962Z,21.49
2023-03-27T08:52:25.660Z,21.54
2023-03-27T08:57:33.098Z,20.15
2023-03-27T09:02:51.913Z,20.20
2023-03-27T09:08:24.336Z,20.98
2023-03-27T09:13:35.830Z,21.04
2023-03-27T09:18:46.857Z,21.63
2023-03-27T09:24:00.605Z,22.14
2023-03-27T09:29:42.078Z,22.34
2023-03-27T09:35:06.333Z,21.97
2023-03-27T09:40:26.070Z,21.87
2023-03-27T09:45:33.569Z,21.77
2023-03-27T09:50:49.559Z,22.39
2023-03-27T09:56:16.625Z,22.01
2023-03-27T10:01:31.148Z,22.05
2023-03-27T10:07:22.747Z,20.92
2023-03-27T10:12:54.118Z,21.12
2023-03-27T10:18:21.839Z,21.14
2023-03-27T10:23:44.362Z,21.74
2023-03-27T10:29:18.361Z,21.07
2023-03-27T10:34:52.918Z,20.70
2023-03-27T10:40:07.800Z,20.89
2023-03-27T10:45:21.071Z,20.43
2023-03-27T10:50:46.321Z,20.18
2023-03-27T10:56:39.724Z,21.25
2023-03-27T11:01:48.470Z,21.04
2023-03-27T11:07:00.118Z,20.64
2023-03-27T11:12:12.103Z,21.04
2023-03-27T11:17:44.975Z,20.91
2023-03-27T11:23:30.288Z,21.23
2023-03-27T11:29:04.563Z,21.31
2023-03-27T11:34:29.104Z,20.59
2023-03-27T11:40:01.573Z,20.43
2023-03-27T11:45:09.704Z,20.62
2023-03-27T11:50:36.364Z,20.51
2023-03-27T11:55:57.257Z,20.27
2023-03-27T12:01:10.521Z,20.07
2023-03-27T12:06:50.162Z,18.55
2023-03-27T12:12:24.933Z,18.94
2023-03-27T12:17:56.268Z,18.96
2023-03-27T12:23:26.040Z,18.62
2023-03-27T12:29:00.716Z,17.94
2023-03-27T12:34:53.371Z,19.63
2023-03-27T12:40:01.972Z,19.61
2023-03-27T12:45:28.296Z,18.96
2023-03-27T12:50:56.705Z,19.33
2023-03-27T12:56:13.584Z,19.02
2023-03-27T13:01:24.728Z,19.79
2023-03-27T13:07:05.504Z,18.45
2023-03-27T13:12:40.708Z,17.65
2023-03-27T13:18:01.579Z,18.70
2023-03-27T13:23:33.167Z,17.54
2023-03-27T13:28:48.827Z,18.25
2023-03-27T13:34:14.381Z,18.63
2023-03-27T13:39:25.113Z,18.34
2023-03-27T13:44:40.149Z,19.36
2023-03-27T13:50:04.540Z,20.21
2023-03-27T13:55:19.465Z,20.74
2023-03-27T14:01:18.315Z,20.85
2023-03-27T14:07:01.435Z,19.59
2023-03-27T14:12:12.774Z,20.51
2023-03-27T14:18:01.946Z,20.13
2023-03-27T14:23:24.052Z,19.68
2023-03-27T14:28:57.743Z,20.17
2023-03-27T14:34:10.745Z,19.32
2023-03-27T14:39:18.369Z,19.05
2023-03-27T14:44:28.080Z,19.03
2023-03-27T14:49:39.634Z,19.25
2023-03-27T14:54:55.005Z,17.24
2023-03-27T15:00:07.169Z,18.30
2023-03-27T15:05:22.859Z,18.47
2023-03-27T15:10:33.932Z,18.54
2023-03-27T15:15:47.299Z,18.39
2023-03-27T15:20:51.428Z,17.65
2023-03-27T15:26:20.913Z,17.78
2023-03-27T15:31:25.807Z,17.37
2023-03-27T15:36:33.467Z,17.17
2023-03-27T15:41:41.242Z,16.79
2023-03-27T15:46:54.510Z,16.05
2023-03-27T15:52:00.758Z,14.77
2023-03-27T15:57:11.724Z,14.43
2023-03-27T16:02:18.529Z,13.97
2023-03-27T16:07:27.732Z,14.16
2023-03-27T16:12:55.411Z,13.17
2023-03-27T16:18:04.554Z,13.05
2023-03-27T16:23:08.114Z,12.90
2023-03-27T16:28:14.513Z,12.94
2023-03-27T16:33:21.488Z,12.91
2023-03-27T16:38:25.806Z,12.16
2023-03-27T16:43:28.802Z,12.01
2023-03-27T16:48:32.950Z,11.53
2023-03-27T16:53:36.448Z,11.19
2023-03-27T16:58:40.901Z,11.00
2023-03-27T17:03:44.583Z,10.77
2023-03-27T17:08:49.524Z,10.42
2023-03-27T17:13:53.033Z,10.24
2023-03-27T17:18:57.972Z,10.17
2023-03-27T17:24:02.369Z,10.00
2023-03-27T17:29:08.720Z,9.74
2023-03-27T17:34:12.635Z,9.67
2023-03-27T17:39:16.043Z,9.40
2023-03-27T17:44:19.794Z,9.40
2023-03-27T17:49:23.707Z,9.44
2023-03-27T17:54:26.770Z,9.31
2023-03-27T17:59:33.819Z,9.22
2023-03-27T18:04:37.635Z,9.34
2023-03-27T18:09:41.931Z,9.36
2023-03-27T18:14:45.716Z,9.25
2023-03-27T18:19:48.773Z,9.01
2023-03-27T18:24:52.847Z,9.17
2023-03-27T18:29:56.372Z,9.19
2023-03-27T18:35:00.275Z,9.00
2023-03-27T18:40:08.381Z,9.07
2023-03-27T18:45:13.511Z,9.01
2023-03-27T18:50:17.993Z,9.07
2023-03-27T18:55:29.968Z,8.90
2023-03-27T19:00:38.014Z,9.09
2023-03-27T19:05:42.184Z,9.37
2023-03-27T19:10:45.875Z,9.51
2023-03-27T19:15:58.414Z,9.69
2023-03-27T19:21:27.532Z,9.71
2023-03-27T19:26:42.389Z,9.60
2023-03-27T19:31:46.065Z,10.07
2023-03-27T19:36:52.039Z,10.33
2023-03-27T19:41:56.163Z,10.48
2023-03-27T19:46:59.350Z,10.38
2023-03-27T19:52:03.516Z,10.48
2023-03-27T19:57:07.375Z,10.48
2023-03-27T20:02:14.741Z,10.68
2023-03-27T20:07:18.941Z,10.58
2023-03-27T20:12:23.464Z,9.91
2023-03-27T20:17:28.384Z,9.13
2023-03-27T20:22:40.695Z,8.67
2023-03-27T20:27:50.545Z,8.42
2023-03-27T20:32:55.153Z,8.30
2023-03-27T20:38:04.958Z,7.90
2023-03-27T20:43:13.017Z,7.99
2023-03-27T20:48:18.381Z,8.12
2023-03-27T20:53:33.935Z,8.01
2023-03-27T20:58:39.623Z,8.12
2023-03-27T21:03:46.437Z,8.15
2023-03-27T21:08:50.984Z,8.15
2023-03-27T21:13:54.448Z,8.10
2023-03-27T21:18:58.305Z,8.43
2023-03-27T21:24:09.915Z,8.90
2023-03-27T21:29:15.613Z,8.74
2023-03-27T21:34:19.512Z,8.54
2023-03-27T21:39:23.506Z,8.53
2023-03-27T21:44:27.285Z,8.50
2023-03-27T21:49:30.767Z,8.62
2023-03-27T21:54:34.276Z,8.65
2023-03-27T21:59:38.397Z,8.62
2023-03-27T22:04:41.596Z,8.40
2023-03-27T22:09:46.153Z,8.51
2023-03-27T22:14:49.497Z,8.58
2023-03-27T22:19:54.850Z,8.52
2023-03-27T22:24:58.765Z,8.54
2023-03-27T22:30:02.901Z,8.42
2023-03-27T22:35:07.310Z,8.38
2023-03-27T22:40:11.281Z,8.48
2023-03-27T22:45:14.972Z,8.53
2023-03-27T22:50:18.937Z,8.60
2023-03-27T22:55:22.464Z,8.44
2023-03-27T23:00:26.696Z,8.61
2023-03-27T23:05:30.576Z,8.51
2023-03-27T23:10:34.108Z,8.71
2023-03-27T23:15:38.586Z,8.48
2023-03-27T23:20:42.087Z,8.31
2023-03-27T23:25:46.674Z,8.44
2023-03-27T23:31:01.466Z,8.38
2023-03-27T23:36:08.028Z,8.54
2023-03-27T23:41:13.950Z,8.53
2023-03-27T23:46:18.577Z,7.90
2023-03-27T23:51:22.582Z,7.66
2023-03-27T23:56:26.446Z,7.98
